sensor_id;sensor_type;location;lat;lon;timestamp;pressure;altitude;pressure_sealevel;temperature;humidity
44131;BME280;29792;48.726;9.248;2022-10-31T00:00:01;97390.31;;;14.39;100.00
44131;BME280;29792;48.726;9.248;2022-10-31T00:02:26;97387.84;;;14.37;100.00
44131;BME280;29792;48.726;9.248;2022-10-31T00:04:51;97390.72;;;14.34;100.00
44131;BME280;29792;48.726;9.248;2022-10-31T00:07:16;97385.81;;;14.31;100.00
44131;BME280;29792;48.726;9.248;2022-10-31T00:09:42;97383.50;;;14.28;100.00
44131;BME280;29792;48.726;9.248;2022-10-31T00:12:07;97383.50;;;14.28;100.00
44131;BME280;29792;48.726;9.248;2022-10-31T00:14:32;97382.97;;;14.25;100.00
44131;BME280;29792;48.726;9.248;2022-10-31T00:16:57;97394.34;;;14.22;100.00
44131;BME280;29792;48.726;9.248;2022-10-31T00:19:23;97386.22;;;14.17;100.00
44131;BME280;29792;48.726;9.248;2022-10-31T00:21:48;97392.34;;;14.16;100.00
44131;BME280;29792;48.726;9.248;2022-10-31T00:24:13;97386.75;;;14.11;100.00
44131;BME280;29792;48.726;9.248;2022-10-31T00:26:39;97385.28;;;14.08;100.00
44131;BME280;29792;48.726;9.248;2022-10-31T00:29:04;97385.28;;;14.08;100.00
44131;BME280;29792;48.726;9.248;2022-10-31T00:31:29;97393.00;;;14.08;100.00
44131;BME280;29792;48.726;9.248;2022-10-31T00:33:55;97391.50;;;14.06;100.00
44131;BME280;29792;48.726;9.248;2022-10-31T00:36:20;97387.44;;;14.03;100.00
44131;BME280;29792;48.726;9.248;2022-10-31T00:38:46;97393.00;;;13.99;100.00
44131;BME280;29792;48.726;9.248;2022-10-31T00:41:14;97390.69;;;13.96;100.00
44131;BME280;29792;48.726;9.248;2022-10-31T00:43:40;97392.72;;;13.92;100.00
44131;BME280;29792;48.726;9.248;2022-10-31T00:46:05;97393.94;;;13.88;100.00
44131;BME280;29792;48.726;9.248;2022-10-31T00:48:30;97383.91;;;13.85;100.00
44131;BME280;29792;48.726;9.248;2022-10-31T00:50:56;97382.41;;;13.83;100.00
44131;BME280;29792;48.726;9.248;2022-10-31T00:53:21;97390.56;;;13.78;100.00
44131;BME280;29792;48.726;9.248;2022-10-31T00:55:47;97384.03;;;13.74;100.00
44131;BME280;29792;48.726;9.248;2022-10-31T00:58:12;97387.94;;;13.68;100.00
44131;BME280;29792;48.726;9.248;2022-10-31T01:00:38;97388.75;;;13.59;100.00
44131;BME280;29792;48.726;9.248;2022-10-31T01:03:03;97384.78;;;13.55;100.00
44131;BME280;29792;48.726;9.248;2022-10-31T01:05:28;97380.88;;;13.51;100.00
44131;BME280;29792;48.726;9.248;2022-10-31T01:07:54;97389.66;;;13.49;100.00
44131;BME280;29792;48.726;9.248;2022-10-31T01:10:19;97390.06;;;13.44;100.00
44131;BME280;29792;48.726;9.248;2022-10-31T01:12:47;97388.00;;;13.38;100.00
44131;BME280;29792;48.726;9.248;2022-10-31T01:15:19;97388.41;;;13.33;100.00
44131;BME280;29792;48.726;9.248;2022-10-31T01:17:45;97384.84;;;13.25;100.00
44131;BME280;29792;48.726;9.248;2022-10-31T01:20:11;97381.03;;;13.19;100.00
44131;BME280;29792;48.726;9.248;2022-10-31T01:22:37;97383.97;;;13.15;100.00
44131;BME280;29792;48.726;9.248;2022-10-31T01:25:02;97381.66;;;13.12;100.00
44131;BME280;29792;48.726;9.248;2022-10-31T01:27:28;97385.53;;;13.06;100.00
44131;BME280;29792;48.726;9.248;2022-10-31T01:29:53;97382.31;;;13.04;100.00
44131;BME280;29792;48.726;9.248;2022-10-31T01:32:18;97378.91;;;13.04;100.00
44131;BME280;29792;48.726;9.248;2022-10-31T01:34:44;97388.50;;;13.02;100.00
44131;BME280;29792;48.726;9.248;2022-10-31T01:37:09;97381.75;;;13.00;100.00
44131;BME280;29792;48.726;9.248;2022-10-31T01:39:34;97374.25;;;12.97;100.00
44131;BME280;29792;48.726;9.248;2022-10-31T01:42:00;97378.63;;;12.97;100.00
44131;BME280;29792;48.726;9.248;2022-10-31T01:46:55;97367.75;;;12.93;100.00
44131;BME280;29792;48.726;9.248;2022-10-31T01:49:38;97370.59;;;12.90;100.00
44131;BME280;29792;48.726;9.248;2022-10-31T01:52:10;97375.06;;;12.88;100.00
44131;BME280;29792;48.726;9.248;2022-10-31T01:54:41;97370.16;;;12.85;100.00
44131;BME280;29792;48.726;9.248;2022-10-31T01:57:10;97361.22;;;12.80;100.00
44131;BME280;29792;48.726;9.248;2022-10-31T01:59:42;97360.75;;;12.75;100.00
44131;BME280;29792;48.726;9.248;2022-10-31T02:02:10;97361.69;;;12.74;100.00
44131;BME280;29792;48.726;9.248;2022-10-31T02:04:36;97362.78;;;12.71;100.00
44131;BME280;29792;48.726;9.248;2022-10-31T02:07:05;97362.91;;;12.70;100.00
44131;BME280;29792;48.726;9.248;2022-10-31T02:09:33;97368.19;;;12.68;100.00
44131;BME280;29792;48.726;9.248;2022-10-31T02:12:01;97370.06;;;12.66;100.00
44131;BME280;29792;48.726;9.248;2022-10-31T02:14:29;97366.13;;;12.62;100.00
44131;BME280;29792;48.726;9.248;2022-10-31T02:16:56;97363.78;;;12.59;100.00
44131;BME280;29792;48.726;9.248;2022-10-31T02:22:18;97362.78;;;12.50;100.00
44131;BME280;29792;48.726;9.248;2022-10-31T02:24:47;97367.13;;;12.50;100.00
44131;BME280;29792;48.726;9.248;2022-10-31T02:30:05;97361.78;;;12.42;100.00
44131;BME280;29792;48.726;9.248;2022-10-31T02:32:54;97358.66;;;12.38;100.00
44131;BME280;29792;48.726;9.248;2022-10-31T02:35:37;97358.78;;;12.37;100.00
44131;BME280;29792;48.726;9.248;2022-10-31T02:38:15;97353.91;;;12.34;100.00
44131;BME280;29792;48.726;9.248;2022-10-31T02:45:50;97364.69;;;12.28;100.00
44131;BME280;29792;48.726;9.248;2022-10-31T02:48:20;97359.00;;;12.24;100.00
44131;BME280;29792;48.726;9.248;2022-10-31T02:50:55;97357.00;;;12.16;100.00
44131;BME280;29792;48.726;9.248;2022-10-31T02:53:22;97363.22;;;12.14;100.00
44131;BME280;29792;48.726;9.248;2022-10-31T02:55:56;97360.19;;;12.09;100.00
44131;BME280;29792;48.726;9.248;2022-10-31T02:58:26;97362.91;;;12.07;100.00
44131;BME280;29792;48.726;9.248;2022-10-31T03:03:36;97353.13;;;12.01;100.00
44131;BME280;29792;48.726;9.248;2022-10-31T03:06:20;97359.34;;;11.99;100.00
44131;BME280;29792;48.726;9.248;2022-10-31T03:08:55;97351.88;;;11.96;100.00
44131;BME280;29792;48.726;9.248;2022-10-31T03:11:31;97358.97;;;11.92;100.00
44131;BME280;29792;48.726;9.248;2022-10-31T03:14:02;97359.81;;;11.93;100.00
44131;BME280;29792;48.726;9.248;2022-10-31T03:16:40;97354.13;;;11.89;100.00
44131;BME280;29792;48.726;9.248;2022-10-31T03:19:14;97355.97;;;11.87;100.00
44131;BME280;29792;48.726;9.248;2022-10-31T03:21:51;97351.91;;;11.84;100.00
44131;BME280;29792;48.726;9.248;2022-10-31T03:24:20;97347.03;;;11.81;100.00
44131;BME280;29792;48.726;9.248;2022-10-31T03:26:51;97339.69;;;11.77;100.00
44131;BME280;29792;48.726;9.248;2022-10-31T03:29:21;97344.81;;;11.77;100.00
44131;BME280;29792;48.726;9.248;2022-10-31T03:31:51;97348.31;;;11.76;100.00
44131;BME280;29792;48.726;9.248;2022-10-31T03:34:19;97350.09;;;11.75;100.00
44131;BME280;29792;48.726;9.248;2022-10-31T03:36:46;97356.97;;;11.75;100.00
44131;BME280;29792;48.726;9.248;2022-10-31T03:39:15;97354.50;;;11.73;100.00
44131;BME280;29792;48.726;9.248;2022-10-31T03:41:44;97353.66;;;11.73;100.00
44131;BME280;29792;48.726;9.248;2022-10-31T03:44:15;97351.22;;;11.71;100.00
44131;BME280;29792;48.726;9.248;2022-10-31T03:46:41;97352.16;;;11.70;100.00
44131;BME280;29792;48.726;9.248;2022-10-31T03:49:08;97358.09;;;11.71;100.00
44131;BME280;29792;48.726;9.248;2022-10-31T03:51:45;97348.78;;;11.70;100.00
44131;BME280;29792;48.726;9.248;2022-10-31T03:54:24;97350.50;;;11.69;100.00
44131;BME280;29792;48.726;9.248;2022-10-31T03:56:53;97347.13;;;11.69;100.00
44131;BME280;29792;48.726;9.248;2022-10-31T03:59:24;97344.72;;;11.67;100.00
44131;BME280;29792;48.726;9.248;2022-10-31T04:01:57;97343.09;;;11.66;100.00
44131;BME280;29792;48.726;9.248;2022-10-31T04:04:23;97343.91;;;11.67;100.00
44131;BME280;29792;48.726;9.248;2022-10-31T04:06:50;97345.50;;;11.68;100.00
44131;BME280;29792;48.726;9.248;2022-10-31T04:09:18;97350.63;;;11.68;100.00
44131;BME280;29792;48.726;9.248;2022-10-31T04:11:50;97351.44;;;11.68;100.00
44131;BME280;29792;48.726;9.248;2022-10-31T04:14:17;97348.22;;;11.66;100.00
44131;BME280;29792;48.726;9.248;2022-10-31T04:16:43;97341.44;;;11.65;100.00
44131;BME280;29792;48.726;9.248;2022-10-31T04:19:10;97338.88;;;11.65;100.00
44131;BME280;29792;48.726;9.248;2022-10-31T04:21:36;97346.47;;;11.67;100.00
44131;BME280;29792;48.726;9.248;2022-10-31T04:24:03;97347.41;;;11.66;100.00
44131;BME280;29792;48.726;9.248;2022-10-31T04:26:33;97336.31;;;11.65;100.00
44131;BME280;29792;48.726;9.248;2022-10-31T04:28:58;97336.44;;;11.64;100.00
44131;BME280;29792;48.726;9.248;2022-10-31T04:31:24;97339.00;;;11.64;100.00
44131;BME280;29792;48.726;9.248;2022-10-31T04:33:50;97331.53;;;11.61;100.00
44131;BME280;29792;48.726;9.248;2022-10-31T04:36:15;97337.59;;;11.60;100.00
44131;BME280;29792;48.726;9.248;2022-10-31T04:38:44;97329.91;;;11.60;100.00
44131;BME280;29792;48.726;9.248;2022-10-31T04:41:10;97332.72;;;11.57;100.00
44131;BME280;29792;48.726;9.248;2022-10-31T04:43:39;97328.63;;;11.54;100.00
44131;BME280;29792;48.726;9.248;2022-10-31T04:46:25;97323.19;;;11.47;100.00
44131;BME280;29792;48.726;9.248;2022-10-31T04:49:01;97312.47;;;11.42;100.00
44131;BME280;29792;48.726;9.248;2022-10-31T04:51:29;97318.75;;;11.38;100.00
44131;BME280;29792;48.726;9.248;2022-10-31T04:54:05;97313.19;;;11.33;100.00
44131;BME280;29792;48.726;9.248;2022-10-31T04:56:34;97309.47;;;11.26;100.00
44131;BME280;29792;48.726;9.248;2022-10-31T04:59:40;97310.75;;;11.21;100.00
44131;BME280;29792;48.726;9.248;2022-10-31T05:57:42;97292.59;;;10.35;100.00
44131;BME280;29792;48.726;9.248;2022-10-31T06:00:08;97294.34;;;10.34;100.00
44131;BME280;29792;48.726;9.248;2022-10-31T06:02:34;97295.16;;;10.35;100.00
44131;BME280;29792;48.726;9.248;2022-10-31T06:05:00;97297.63;;;10.36;100.00
44131;BME280;29792;48.726;9.248;2022-10-31T06:07:26;97286.44;;;10.37;100.00
44131;BME280;29792;48.726;9.248;2022-10-31T06:09:52;97287.13;;;10.39;100.00
44131;BME280;29792;48.726;9.248;2022-10-31T06:12:17;97286.19;;;10.40;100.00
44131;BME280;29792;48.726;9.248;2022-10-31T06:14:42;97291.09;;;10.43;100.00
44131;BME280;29792;48.726;9.248;2022-10-31T06:17:07;97291.94;;;10.44;100.00
44131;BME280;29792;48.726;9.248;2022-10-31T06:19:33;97295.97;;;10.46;100.00
44131;BME280;29792;48.726;9.248;2022-10-31T06:21:58;97286.44;;;10.48;100.00
44131;BME280;29792;48.726;9.248;2022-10-31T06:24:23;97287.16;;;10.50;100.00
44131;BME280;29792;48.726;9.248;2022-10-31T06:26:48;97293.81;;;10.53;100.00
44131;BME280;29792;48.726;9.248;2022-10-31T06:29:14;97285.06;;;10.55;100.00
44131;BME280;29792;48.726;9.248;2022-10-31T06:31:39;97290.06;;;10.57;100.00
44131;BME280;29792;48.726;9.248;2022-10-31T06:34:04;97298.44;;;10.59;100.00
44131;BME280;29792;48.726;9.248;2022-10-31T06:36:29;97289.94;;;10.58;100.00
44131;BME280;29792;48.726;9.248;2022-10-31T06:38:55;97292.50;;;10.58;100.00
44131;BME280;29792;48.726;9.248;2022-10-31T06:41:20;97304.28;;;10.61;100.00
44131;BME280;29792;48.726;9.248;2022-10-31T06:43:46;97304.03;;;10.64;100.00
44131;BME280;29792;48.726;9.248;2022-10-31T06:46:12;97295.91;;;10.70;100.00
44131;BME280;29792;48.726;9.248;2022-10-31T06:48:37;97299.75;;;10.76;100.00
44131;BME280;29792;48.726;9.248;2022-10-31T06:51:03;97289.13;;;10.80;100.00
44131;BME280;29792;48.726;9.248;2022-10-31T06:53:28;97294.97;;;10.82;100.00
44131;BME280;29792;48.726;9.248;2022-10-31T06:55:57;97296.59;;;10.83;100.00
44131;BME280;29792;48.726;9.248;2022-10-31T06:58:23;97296.13;;;10.89;100.00
44131;BME280;29792;48.726;9.248;2022-10-31T07:00:48;97304.41;;;10.93;100.00
44131;BME280;29792;48.726;9.248;2022-10-31T07:03:14;97296.72;;;10.93;100.00
44131;BME280;29792;48.726;9.248;2022-10-31T07:47:59;97290.44;;;11.40;100.00
44131;BME280;29792;48.726;9.248;2022-10-31T07:50:30;97295.19;;;11.44;100.00
44131;BME280;29792;48.726;9.248;2022-10-31T07:55:32;97303.34;;;11.50;100.00
44131;BME280;29792;48.726;9.248;2022-10-31T07:58:05;97301.47;;;11.52;100.00
44131;BME280;29792;48.726;9.248;2022-10-31T08:34:55;97292.13;;;12.35;100.00
44131;BME280;29792;48.726;9.248;2022-10-31T08:37:20;97289.72;;;12.43;100.00
44131;BME280;29792;48.726;9.248;2022-10-31T08:39:46;97283.94;;;12.51;100.00
44131;BME280;29792;48.726;9.248;2022-10-31T08:42:12;97286.69;;;12.59;100.00
44131;BME280;29792;48.726;9.248;2022-10-31T08:44:38;97282.25;;;12.61;100.00
44131;BME280;29792;48.726;9.248;2022-10-31T08:47:03;97274.28;;;12.64;100.00
44131;BME280;29792;48.726;9.248;2022-10-31T08:49:28;97273.75;;;12.70;100.00
44131;BME280;29792;48.726;9.248;2022-10-31T08:51:54;97275.69;;;12.78;100.00
44131;BME280;29792;48.726;9.248;2022-10-31T08:54:19;97273.53;;;12.83;100.00
44131;BME280;29792;48.726;9.248;2022-10-31T08:56:44;97268.84;;;12.88;100.00
44131;BME280;29792;48.726;9.248;2022-10-31T08:59:09;97268.28;;;12.94;100.00
44131;BME280;29792;48.726;9.248;2022-10-31T09:01:34;97264.25;;;13.01;100.00
44131;BME280;29792;48.726;9.248;2022-10-31T09:04:00;97268.03;;;13.07;100.00
44131;BME280;29792;48.726;9.248;2022-10-31T09:06:25;97262.28;;;13.14;100.00
44131;BME280;29792;48.726;9.248;2022-10-31T09:08:50;97273.69;;;13.21;100.00
44131;BME280;29792;48.726;9.248;2022-10-31T09:11:16;97272.47;;;13.25;100.00
44131;BME280;29792;48.726;9.248;2022-10-31T09:13:41;97272.22;;;13.28;100.00
44131;BME280;29792;48.726;9.248;2022-10-31T09:16:06;97268.28;;;13.34;100.00
44131;BME280;29792;48.726;9.248;2022-10-31T09:18:32;97269.25;;;13.43;100.00
44131;BME280;29792;48.726;9.248;2022-10-31T09:20:58;97265.72;;;13.44;100.00
44131;BME280;29792;48.726;9.248;2022-10-31T09:23:24;97272.34;;;13.46;100.00
44131;BME280;29792;48.726;9.248;2022-10-31T09:25:52;97274.53;;;13.51;100.00
44131;BME280;29792;48.726;9.248;2022-10-31T09:28:20;97265.03;;;13.51;100.00
44131;BME280;29792;48.726;9.248;2022-10-31T09:30:47;97264.75;;;13.54;100.00
44131;BME280;29792;48.726;9.248;2022-10-31T09:33:13;97262.88;;;13.56;100.00
44131;BME280;29792;48.726;9.248;2022-10-31T09:35:39;97264.50;;;13.57;100.00
44131;BME280;29792;48.726;9.248;2022-10-31T09:38:08;97257.19;;;13.62;100.00
44131;BME280;29792;48.726;9.248;2022-10-31T09:40:45;97257.72;;;13.66;100.00
44131;BME280;29792;48.726;9.248;2022-10-31T09:46:23;97253.66;;;13.73;100.00
44131;BME280;29792;48.726;9.248;2022-10-31T09:51:41;97256.91;;;13.85;100.00
44131;BME280;29792;48.726;9.248;2022-10-31T09:54:15;97254.88;;;13.88;100.00
44131;BME280;29792;48.726;9.248;2022-10-31T09:56:41;97262.31;;;13.91;100.00
44131;BME280;29792;48.726;9.248;2022-10-31T09:59:16;97263.66;;;13.95;100.00
44131;BME280;29792;48.726;9.248;2022-10-31T10:01:53;97259.63;;;14.02;100.00
44131;BME280;29792;48.726;9.248;2022-10-31T10:04:42;97249.94;;;14.14;100.00
44131;BME280;29792;48.726;9.248;2022-10-31T10:10:00;97246.22;;;14.36;100.00
44131;BME280;29792;48.726;9.248;2022-10-31T10:12:34;97244.31;;;14.47;100.00
44131;BME280;29792;48.726;9.248;2022-10-31T10:20:47;97247.13;;;14.64;100.00
44131;BME280;29792;48.726;9.248;2022-10-31T10:26:19;97242.00;;;14.81;100.00
44131;BME280;29792;48.726;9.248;2022-10-31T10:28:49;97241.97;;;14.91;100.00
44131;BME280;29792;48.726;9.248;2022-10-31T10:31:20;97238.38;;;15.02;100.00
44131;BME280;29792;48.726;9.248;2022-10-31T10:36:43;97231.00;;;15.24;100.00
44131;BME280;29792;48.726;9.248;2022-10-31T10:39:53;97236.56;;;15.30;99.84
44131;BME280;29792;48.726;9.248;2022-10-31T10:42:15;97236.56;;;15.30;99.15
44131;BME280;29792;48.726;9.248;2022-10-31T10:45:00;97234.81;;;15.30;99.03
44131;BME280;29792;48.726;9.248;2022-10-31T10:47:59;97227.06;;;15.30;98.57
44131;BME280;29792;48.726;9.248;2022-10-31T10:50:36;97222.84;;;15.29;98.76
44131;BME280;29792;48.726;9.248;2022-10-31T10:58:25;97214.44;;;15.45;99.47
44131;BME280;29792;48.726;9.248;2022-10-31T11:00:52;97214.28;;;15.46;99.54
44131;BME280;29792;48.726;9.248;2022-10-31T11:03:20;97209.81;;;15.48;99.70
44131;BME280;29792;48.726;9.248;2022-10-31T11:05:51;97212.06;;;15.51;99.17
44131;BME280;29792;48.726;9.248;2022-10-31T11:08:43;97207.47;;;15.55;99.27
44131;BME280;29792;48.726;9.248;2022-10-31T11:11:23;97203.59;;;15.59;98.73
44131;BME280;29792;48.726;9.248;2022-10-31T11:14:05;97202.22;;;15.64;98.72
44131;BME280;29792;48.726;9.248;2022-10-31T11:16:39;97184.34;;;15.71;98.95
44131;BME280;29792;48.726;9.248;2022-10-31T11:19:08;97186.03;;;15.80;98.46
44131;BME280;29792;48.726;9.248;2022-10-31T11:21:40;97180.59;;;15.91;98.65
44131;BME280;29792;48.726;9.248;2022-10-31T11:26:34;97178.31;;;16.14;97.61
44131;BME280;29792;48.726;9.248;2022-10-31T11:29:00;97172.38;;;16.22;97.50
44131;BME280;29792;48.726;9.248;2022-10-31T11:31:28;97162.72;;;16.32;97.75
44131;BME280;29792;48.726;9.248;2022-10-31T11:33:58;97161.97;;;16.39;96.21
44131;BME280;29792;48.726;9.248;2022-10-31T11:36:27;97158.78;;;16.46;95.36
44131;BME280;29792;48.726;9.248;2022-10-31T11:38:54;97155.41;;;16.53;94.80
44131;BME280;29792;48.726;9.248;2022-10-31T11:41:32;97153.00;;;16.60;94.76
44131;BME280;29792;48.726;9.248;2022-10-31T11:44:03;97150.47;;;16.68;94.69
44131;BME280;29792;48.726;9.248;2022-10-31T11:46:43;97145.47;;;16.74;93.65
44131;BME280;29792;48.726;9.248;2022-10-31T11:49:54;97148.22;;;16.81;93.84
44131;BME280;29792;48.726;9.248;2022-10-31T11:52:23;97140.34;;;16.91;93.55
44131;BME280;29792;48.726;9.248;2022-10-31T11:54:59;97140.50;;;16.97;93.33
44131;BME280;29792;48.726;9.248;2022-10-31T11:57:31;97140.66;;;17.04;92.87
44131;BME280;29792;48.726;9.248;2022-10-31T12:00:00;97139.06;;;17.11;93.37
44131;BME280;29792;48.726;9.248;2022-10-31T12:02:26;97129.84;;;17.16;93.73
44131;BME280;29792;48.726;9.248;2022-10-31T12:07:23;97129.06;;;17.32;93.53
44131;BME280;29792;48.726;9.248;2022-10-31T12:09:49;97133.72;;;17.37;94.21
44131;BME280;29792;48.726;9.248;2022-10-31T12:12:40;97120.31;;;17.41;93.54
44131;BME280;29792;48.726;9.248;2022-10-31T12:20:26;97105.56;;;17.58;92.48
44131;BME280;29792;48.726;9.248;2022-10-31T12:23:18;97109.16;;;17.65;91.79
44131;BME280;29792;48.726;9.248;2022-10-31T12:25:49;97113.00;;;17.69;90.82
44131;BME280;29792;48.726;9.248;2022-10-31T12:41:51;97079.31;;;17.61;87.35
44131;BME280;29792;48.726;9.248;2022-10-31T12:52:44;97064.13;;;17.66;89.25
44131;BME280;29792;48.726;9.248;2022-10-31T12:55:35;97056.81;;;17.70;89.72
44131;BME280;29792;48.726;9.248;2022-10-31T12:58:10;97054.88;;;17.72;89.67
44131;BME280;29792;48.726;9.248;2022-10-31T13:00:44;97056.66;;;17.71;89.90
44131;BME280;29792;48.726;9.248;2022-10-31T13:03:25;97044.84;;;17.69;89.50
44131;BME280;29792;48.726;9.248;2022-10-31T13:05:56;97035.44;;;17.68;89.46
44131;BME280;29792;48.726;9.248;2022-10-31T13:08:28;97028.81;;;17.65;89.19
44131;BME280;29792;48.726;9.248;2022-10-31T13:11:16;97030.59;;;17.65;88.83
44131;BME280;29792;48.726;9.248;2022-10-31T13:14:05;97035.63;;;17.66;89.64
44131;BME280;29792;48.726;9.248;2022-10-31T13:16:41;97033.03;;;17.66;89.17
44131;BME280;29792;48.726;9.248;2022-10-31T13:19:27;97031.25;;;17.67;89.07
44131;BME280;29792;48.726;9.248;2022-10-31T13:22:02;97031.25;;;17.67;89.56
44131;BME280;29792;48.726;9.248;2022-10-31T13:24:36;97024.47;;;17.66;89.58
44131;BME280;29792;48.726;9.248;2022-10-31T13:27:13;97022.84;;;17.65;89.56
44131;BME280;29792;48.726;9.248;2022-10-31T13:29:44;97018.47;;;17.65;89.94
44131;BME280;29792;48.726;9.248;2022-10-31T13:32:13;97014.09;;;17.66;89.16
44131;BME280;29792;48.726;9.248;2022-10-31T13:34:41;97015.22;;;17.63;88.41
44131;BME280;29792;48.726;9.248;2022-10-31T13:37:35;97012.78;;;17.62;88.74
44131;BME280;29792;48.726;9.248;2022-10-31T13:40:32;97014.72;;;17.68;88.40
44131;BME280;29792;48.726;9.248;2022-10-31T13:43:00;97017.78;;;17.71;87.00
44131;BME280;29792;48.726;9.248;2022-10-31T13:45:27;97020.50;;;17.78;86.59
44131;BME280;29792;48.726;9.248;2022-10-31T13:48:16;97020.16;;;17.89;87.79
44131;BME280;29792;48.726;9.248;2022-10-31T13:50:55;97010.03;;;18.02;88.12
44131;BME280;29792;48.726;9.248;2022-10-31T13:53:22;97006.59;;;18.10;87.22
44131;BME280;29792;48.726;9.248;2022-10-31T13:56:11;96993.16;;;18.14;86.26
44131;BME280;29792;48.726;9.248;2022-10-31T13:59:04;96986.47;;;18.20;85.91
44131;BME280;29792;48.726;9.248;2022-10-31T14:01:27;96994.72;;;18.23;86.01
44131;BME280;29792;48.726;9.248;2022-10-31T14:04:04;96990.78;;;18.27;85.70
44131;BME280;29792;48.726;9.248;2022-10-31T14:06:38;96984.47;;;18.30;85.31
44131;BME280;29792;48.726;9.248;2022-10-31T14:09:05;96996.09;;;18.34;85.48
44131;BME280;29792;48.726;9.248;2022-10-31T14:11:39;96991.22;;;18.39;85.73
44131;BME280;29792;48.726;9.248;2022-10-31T14:14:11;96988.25;;;18.42;86.17
44131;BME280;29792;48.726;9.248;2022-10-31T14:16:38;96992.25;;;18.53;86.90
44131;BME280;29792;48.726;9.248;2022-10-31T14:19:08;96996.72;;;18.67;86.27
44131;BME280;29792;48.726;9.248;2022-10-31T14:21:41;96973.31;;;18.75;84.71
44131;BME280;29792;48.726;9.248;2022-10-31T14:29:44;96971.13;;;19.01;82.99
44131;BME280;29792;48.726;9.248;2022-10-31T14:34:42;96970.97;;;19.18;83.47
44131;BME280;29792;48.726;9.248;2022-10-31T14:40:52;96966.84;;;19.23;83.73
44131;BME280;29792;48.726;9.248;2022-10-31T14:46:25;96977.50;;;19.14;82.41
44131;BME280;29792;48.726;9.248;2022-10-31T14:51:52;96971.31;;;19.00;82.56
44131;BME280;29792;48.726;9.248;2022-10-31T14:54:25;96957.41;;;18.93;83.17
44131;BME280;29792;48.726;9.248;2022-10-31T14:56:55;96957.97;;;18.88;83.17
44131;BME280;29792;48.726;9.248;2022-10-31T14:59:25;96949.69;;;18.85;83.74
44131;BME280;29792;48.726;9.248;2022-10-31T15:04:41;96964.28;;;18.86;83.60
44131;BME280;29792;48.726;9.248;2022-10-31T15:07:21;96951.66;;;18.83;82.90
44131;BME280;29792;48.726;9.248;2022-10-31T15:10:25;96956.75;;;18.76;82.50
44131;BME280;29792;48.726;9.248;2022-10-31T15:12:51;96946.09;;;18.71;82.43
44131;BME280;29792;48.726;9.248;2022-10-31T15:15:24;96951.34;;;18.63;82.33
44131;BME280;29792;48.726;9.248;2022-10-31T15:18:00;96945.56;;;18.53;82.01
44131;BME280;29792;48.726;9.248;2022-10-31T15:20:32;96945.63;;;18.45;82.17
44131;BME280;29792;48.726;9.248;2022-10-31T15:23:01;96939.69;;;18.36;82.22
44131;BME280;29792;48.726;9.248;2022-10-31T15:25:29;96950.75;;;18.30;82.05
44131;BME280;29792;48.726;9.248;2022-10-31T15:27:57;96948.53;;;18.19;82.05
44131;BME280;29792;48.726;9.248;2022-10-31T15:30:25;96952.00;;;18.11;82.14
44131;BME280;29792;48.726;9.248;2022-10-31T15:32:50;96940.53;;;18.06;82.09
44131;BME280;29792;48.726;9.248;2022-10-31T15:35:28;96942.19;;;17.99;82.27
44131;BME280;29792;48.726;9.248;2022-10-31T15:37:55;96939.44;;;17.92;82.73
44131;BME280;29792;48.726;9.248;2022-10-31T15:40:23;96937.56;;;17.86;83.18
44131;BME280;29792;48.726;9.248;2022-10-31T15:42:52;96933.06;;;17.80;83.84
44131;BME280;29792;48.726;9.248;2022-10-31T15:45:22;96927.59;;;17.75;83.61
44131;BME280;29792;48.726;9.248;2022-10-31T15:48:02;96933.41;;;17.69;83.65
44131;BME280;29792;48.726;9.248;2022-10-31T15:50:38;96924.84;;;17.60;83.70
44131;BME280;29792;48.726;9.248;2022-10-31T15:53:10;96929.91;;;17.53;83.99
44131;BME280;29792;48.726;9.248;2022-10-31T15:55:54;96930.44;;;17.41;84.63
44131;BME280;29792;48.726;9.248;2022-10-31T15:58:20;96928.72;;;17.25;84.89
44131;BME280;29792;48.726;9.248;2022-10-31T16:01:03;96925.81;;;17.12;85.99
44131;BME280;29792;48.726;9.248;2022-10-31T16:03:30;96929.38;;;17.03;86.48
44131;BME280;29792;48.726;9.248;2022-10-31T16:06:02;96925.84;;;16.96;86.83
44131;BME280;29792;48.726;9.248;2022-10-31T16:10:55;96920.69;;;16.88;87.17
44131;BME280;29792;48.726;9.248;2022-10-31T16:16:16;96924.44;;;16.77;87.94
44131;BME280;29792;48.726;9.248;2022-10-31T16:18:42;96922.31;;;16.72;88.12
44131;BME280;29792;48.726;9.248;2022-10-31T16:21:09;96923.00;;;16.66;88.19
44131;BME280;29792;48.726;9.248;2022-10-31T16:23:37;96919.28;;;16.61;88.85
44131;BME280;29792;48.726;9.248;2022-10-31T16:26:06;96922.16;;;16.58;88.93
44131;BME280;29792;48.726;9.248;2022-10-31T16:28:33;96920.69;;;16.55;88.92
44131;BME280;29792;48.726;9.248;2022-10-31T16:30:59;96917.63;;;16.52;89.03
44131;BME280;29792;48.726;9.248;2022-10-31T16:33:28;96916.31;;;16.48;89.20
44131;BME280;29792;48.726;9.248;2022-10-31T16:35:55;96916.00;;;16.42;89.38
44131;BME280;29792;48.726;9.248;2022-10-31T16:38:21;96907.75;;;16.39;89.35
44131;BME280;29792;48.726;9.248;2022-10-31T16:40:46;96911.66;;;16.35;89.44
44131;BME280;29792;48.726;9.248;2022-10-31T16:43:13;96911.00;;;16.33;88.93
44131;BME280;29792;48.726;9.248;2022-10-31T16:45:48;96918.28;;;16.29;88.75
44131;BME280;29792;48.726;9.248;2022-10-31T16:48:20;96920.50;;;16.24;88.49
44131;BME280;29792;48.726;9.248;2022-10-31T16:50:47;96930.03;;;16.16;89.04
44131;BME280;29792;48.726;9.248;2022-10-31T16:53:14;96926.47;;;16.09;89.50
44131;BME280;29792;48.726;9.248;2022-10-31T16:55:53;96928.75;;;16.03;89.40
44131;BME280;29792;48.726;9.248;2022-10-31T16:58:22;96929.34;;;15.97;89.88
44131;BME280;29792;48.726;9.248;2022-10-31T17:00:49;96926.28;;;15.94;90.03
44131;BME280;29792;48.726;9.248;2022-10-31T17:03:15;96925.78;;;15.90;90.34
44131;BME280;29792;48.726;9.248;2022-10-31T17:05:40;96924.50;;;15.86;90.50